Point Roberts Airpark

1RL · 华盛顿州, 美国

使用的METAR站距离机场14 NM。
罗盘
风向 的 风向 060° Point Roberts Airpark 16/34
风: 8 kt, 3 beaufort

4 kt

7 kt
改变
0 ft 5.000 10.000 15.000 20.000
Cloud Cloud
FEW 5.300
Cloud Cloud
FEW 7.400
Cloud Cloud Cloud Cloud Cloud Cloud
BKN 14.000
Cloud Cloud Cloud Cloud Cloud Cloud
BKN 20.000
METAR CYVR 020500Z 06008KT 15SM FEW053 FEW074 BKN140 BKN200 04/01 A2938 RMK SC1AC2AC3CI1 SC TR CI TR SLP952

METAR Point Roberts Airpark - 1RL

Point Roberts Airpark是,美国中的小机场。 该机场位于纬度48,97714和经度-123,07922。 该机场有一条跑道: 16/34. 该机场的伪ICAO代码为K1RL。 该机场的本地机场标识(FAA LID)为1RL。 机场在Vancouver FIR中。

该航空气象观测是针对Vancouver International Airport在2024年3月1日 21:00, 当地时间进行的。

机场观察

风向为060°,速度为8 kt。

可见度为15 mi。

有几云在5.300 ft的高度, 几云在7.400 ft的高度, 碎云在14.000 ft的高度 和 碎云在20.000 ft的高度。 破损或更高的上限为14.000 ft。

温度为4 °C,阵风为-1 °C。 露点为1 °C,相对湿度为81%。 海平面上的气压为29,38 inHg (QNH)。

白天

今天,太阳从06:50升起,在17:58降落。 这适用于Point Roberts Airpark,世界夏令时可能有所不同。 当地时间与世界标准时间之间的时差为-8 小时。 当前,没有夏令时有效。

公司介绍

我们没有关于这个机场的公司信息。

体会

到Vliegles.nl去找飞行课程,跳伞和其他飞行体验。 浏览页面,了解Point Roberts Airpark附近所有可用的活动。 你也可以使用搜索功能来寻找你所在地附近的特定飞行课程、跳伞或其他飞行体验。

跑道

Id 标题 侧风 逆风 侧风 %
16/34 180°-360° 7 kt 4 kt 87 %

逆风成分最大的方向会被突出显示,并用于横风计算。 这并不一定意味着这个方向在使用。

乌云

5.300 ft FEW 几云
7.400 ft FEW 几云
14.000 ft BKN 碎云
20.000 ft BKN 碎云

温度 & 天气

温度 4 °C
露点 1 °C
相对湿度 81%
风寒 -1 °C
Kp-index 1 (0-9)

评论

SLP952海平面压力为29,39 inHg (29,39 inHg)
SC1AC2AC3CI1 SC TR CI TR

白天

日出
06:51 (8:53)
中午
12:24
日落
17:58

小工具

你想在你的网站上有一个关于Point Roberts Airpark的当前航空天气(METAR)的小部件吗?

显示HTML代码
?>